sensor_id;sensor_type;location;lat;lon;timestamp;pressure;altitude;pressure_sealevel;temperature;humidity
56400;BME280;42298;53.638;9.876;2022-08-21T00:01:11;101440.38;;;17.43;63.12
56400;BME280;42298;53.638;9.876;2022-08-21T00:03:38;101438.41;;;17.44;62.51
56400;BME280;42298;53.638;9.876;2022-08-21T00:06:03;101442.19;;;17.39;62.34
56400;BME280;42298;53.638;9.876;2022-08-21T00:08:29;101432.38;;;17.33;62.85
56400;BME280;42298;53.638;9.876;2022-08-21T00:10:54;101424.38;;;17.32;62.87
56400;BME280;42298;53.638;9.876;2022-08-21T00:13:20;101440.28;;;17.52;63.13
56400;BME280;42298;53.638;9.876;2022-08-21T00:15:46;101428.28;;;17.60;63.14
56400;BME280;42298;53.638;9.876;2022-08-21T00:18:12;101424.81;;;17.63;62.78
56400;BME280;42298;53.638;9.876;2022-08-21T00:20:40;101429.41;;;17.59;62.79
56400;BME280;42298;53.638;9.876;2022-08-21T00:23:06;101427.53;;;17.51;62.30
56400;BME280;42298;53.638;9.876;2022-08-21T00:25:31;101420.69;;;17.40;62.66
56400;BME280;42298;53.638;9.876;2022-08-21T00:27:57;101415.19;;;17.31;62.69
56400;BME280;42298;53.638;9.876;2022-08-21T00:30:24;101420.44;;;17.33;63.25
56400;BME280;42298;53.638;9.876;2022-08-21T00:32:51;101418.59;;;17.37;62.88
56400;BME280;42298;53.638;9.876;2022-08-21T00:35:19;101415.81;;;17.37;62.32
56400;BME280;42298;53.638;9.876;2022-08-21T00:37:44;101403.56;;;17.29;63.04
56400;BME280;42298;53.638;9.876;2022-08-21T00:40:18;101407.78;;;17.35;63.07
56400;BME280;42298;53.638;9.876;2022-08-21T00:42:44;101408.34;;;17.29;62.20
56400;BME280;42298;53.638;9.876;2022-08-21T00:45:13;101415.38;;;17.26;62.11
56400;BME280;42298;53.638;9.876;2022-08-21T00:47:39;101405.75;;;17.24;62.04
56400;BME280;42298;53.638;9.876;2022-08-21T00:50:06;101412.16;;;17.24;62.13
56400;BME280;42298;53.638;9.876;2022-08-21T00:52:34;101400.59;;;17.13;62.22
56400;BME280;42298;53.638;9.876;2022-08-21T00:55:01;101397.31;;;17.11;61.82
56400;BME280;42298;53.638;9.876;2022-08-21T00:57:34;101400.09;;;17.11;61.92
56400;BME280;42298;53.638;9.876;2022-08-21T01:00:04;101407.63;;;17.11;62.29
56400;BME280;42298;53.638;9.876;2022-08-21T01:02:30;101409.63;;;17.10;61.94
56400;BME280;42298;53.638;9.876;2022-08-21T01:04:55;101415.63;;;17.12;62.17
56400;BME280;42298;53.638;9.876;2022-08-21T01:07:20;101402.28;;;17.06;62.45
56400;BME280;42298;53.638;9.876;2022-08-21T01:09:46;101418.50;;;17.04;62.96
56400;BME280;42298;53.638;9.876;2022-08-21T01:12:12;101393.19;;;16.88;62.68
56400;BME280;42298;53.638;9.876;2022-08-21T01:14:40;101398.56;;;16.93;63.24
56400;BME280;42298;53.638;9.876;2022-08-21T01:17:08;101417.19;;;17.01;62.73
56400;BME280;42298;53.638;9.876;2022-08-21T01:19:35;101408.22;;;16.96;62.35
56400;BME280;42298;53.638;9.876;2022-08-21T01:22:00;101413.31;;;16.94;62.23
56400;BME280;42298;53.638;9.876;2022-08-21T01:24:26;101409.44;;;16.86;62.76
56400;BME280;42298;53.638;9.876;2022-08-21T01:26:52;101406.66;;;16.86;62.16
56400;BME280;42298;53.638;9.876;2022-08-21T01:29:34;101408.94;;;16.84;63.32
56400;BME280;42298;53.638;9.876;2022-08-21T01:32:09;101424.34;;;16.82;62.94
56400;BME280;42298;53.638;9.876;2022-08-21T01:34:39;101420.56;;;16.78;62.81
56400;BME280;42298;53.638;9.876;2022-08-21T01:37:05;101415.06;;;16.69;63.11
56400;BME280;42298;53.638;9.876;2022-08-21T01:39:30;101416.56;;;16.58;64.11
56400;BME280;42298;53.638;9.876;2022-08-21T01:41:56;101409.91;;;16.42;65.66
56400;BME280;42298;53.638;9.876;2022-08-21T01:44:21;101411.59;;;16.26;66.43
56400;BME280;42298;53.638;9.876;2022-08-21T01:46:47;101415.34;;;16.30;65.04
56400;BME280;42298;53.638;9.876;2022-08-21T01:49:13;101409.78;;;16.30;64.19
56400;BME280;42298;53.638;9.876;2022-08-21T01:51:38;101414.84;;;16.37;64.47
56400;BME280;42298;53.638;9.876;2022-08-21T01:54:04;101407.22;;;16.25;66.40
56400;BME280;42298;53.638;9.876;2022-08-21T01:56:35;101399.88;;;16.12;66.62
56400;BME280;42298;53.638;9.876;2022-08-21T01:59:01;101407.41;;;16.12;65.65
56400;BME280;42298;53.638;9.876;2022-08-21T02:01:27;101399.22;;;16.07;65.76
56400;BME280;42298;53.638;9.876;2022-08-21T02:03:52;101398.56;;;16.10;65.27
56400;BME280;42298;53.638;9.876;2022-08-21T02:06:17;101397.25;;;16.16;64.81
56400;BME280;42298;53.638;9.876;2022-08-21T02:08:43;101400.03;;;16.16;65.44
56400;BME280;42298;53.638;9.876;2022-08-21T02:11:08;101410.66;;;16.22;64.53
56400;BME280;42298;53.638;9.876;2022-08-21T02:13:33;101407.34;;;16.29;65.00
56400;BME280;42298;53.638;9.876;2022-08-21T02:15:59;101405.34;;;16.38;66.21
56400;BME280;42298;53.638;9.876;2022-08-21T02:18:24;101406.31;;;16.50;66.30
56400;BME280;42298;53.638;9.876;2022-08-21T02:20:50;101380.50;;;16.41;64.71
56400;BME280;42298;53.638;9.876;2022-08-21T02:23:15;101405.84;;;16.48;64.38
56400;BME280;42298;53.638;9.876;2022-08-21T02:25:41;101406.50;;;16.45;64.01
56400;BME280;42298;53.638;9.876;2022-08-21T02:28:13;101398.00;;;16.42;64.41
56400;BME280;42298;53.638;9.876;2022-08-21T02:30:42;101395.44;;;16.20;66.12
56400;BME280;42298;53.638;9.876;2022-08-21T02:33:09;101401.72;;;16.00;67.03
56400;BME280;42298;53.638;9.876;2022-08-21T02:35:36;101401.69;;;15.91;67.97
56400;BME280;42298;53.638;9.876;2022-08-21T02:38:06;101394.69;;;15.94;68.04
56400;BME280;42298;53.638;9.876;2022-08-21T02:40:35;101389.28;;;15.97;65.97
56400;BME280;42298;53.638;9.876;2022-08-21T02:43:03;101395.97;;;16.05;65.01
56400;BME280;42298;53.638;9.876;2022-08-21T02:45:29;101396.28;;;16.12;64.56
56400;BME280;42298;53.638;9.876;2022-08-21T02:47:57;101395.63;;;16.15;64.75
56400;BME280;42298;53.638;9.876;2022-08-21T02:50:34;101389.91;;;16.11;64.69
56400;BME280;42298;53.638;9.876;2022-08-21T02:53:00;101385.31;;;16.15;64.20
56400;BME280;42298;53.638;9.876;2022-08-21T02:55:27;101387.75;;;16.17;64.47
56400;BME280;42298;53.638;9.876;2022-08-21T02:57:54;101397.41;;;16.19;63.69
56400;BME280;42298;53.638;9.876;2022-08-21T03:00:21;101390.06;;;16.15;63.91
56400;BME280;42298;53.638;9.876;2022-08-21T03:02:48;101390.88;;;16.15;64.31
56400;BME280;42298;53.638;9.876;2022-08-21T03:05:15;101379.94;;;16.10;64.23
56400;BME280;42298;53.638;9.876;2022-08-21T03:07:42;101391.53;;;16.12;64.23
56400;BME280;42298;53.638;9.876;2022-08-21T03:10:08;101383.69;;;16.14;64.36
56400;BME280;42298;53.638;9.876;2022-08-21T03:12:34;101392.03;;;16.14;63.84
56400;BME280;42298;53.638;9.876;2022-08-21T03:15:05;101382.56;;;16.07;64.13
56400;BME280;42298;53.638;9.876;2022-08-21T03:17:31;101381.06;;;16.09;63.90
56400;BME280;42298;53.638;9.876;2022-08-21T03:19:57;101375.22;;;16.02;64.12
56400;BME280;42298;53.638;9.876;2022-08-21T03:22:22;101374.56;;;16.05;63.76
56400;BME280;42298;53.638;9.876;2022-08-21T03:24:48;101374.06;;;16.03;63.88
56400;BME280;42298;53.638;9.876;2022-08-21T03:27:13;101386.81;;;16.04;63.32
56400;BME280;42298;53.638;9.876;2022-08-21T03:29:39;101381.06;;;16.09;64.60
56400;BME280;42298;53.638;9.876;2022-08-21T03:32:05;101358.03;;;16.09;64.40
56400;BME280;42298;53.638;9.876;2022-08-21T03:34:33;101378.09;;;16.31;65.07
56400;BME280;42298;53.638;9.876;2022-08-21T03:36:58;101377.41;;;16.34;64.97
56400;BME280;42298;53.638;9.876;2022-08-21T03:39:24;101380.97;;;16.43;65.14
56400;BME280;42298;53.638;9.876;2022-08-21T03:41:49;101377.88;;;16.45;65.04
56400;BME280;42298;53.638;9.876;2022-08-21T03:44:14;101388.00;;;16.49;64.05
56400;BME280;42298;53.638;9.876;2022-08-21T03:46:40;101377.53;;;16.38;62.98
56400;BME280;42298;53.638;9.876;2022-08-21T03:49:06;101379.53;;;16.29;63.65
56400;BME280;42298;53.638;9.876;2022-08-21T03:51:31;101382.03;;;16.22;62.93
56400;BME280;42298;53.638;9.876;2022-08-21T03:53:57;101374.84;;;16.12;63.41
56400;BME280;42298;53.638;9.876;2022-08-21T03:56:23;101368.50;;;16.03;63.63
56400;BME280;42298;53.638;9.876;2022-08-21T03:58:49;101377.66;;;16.04;63.34
56400;BME280;42298;53.638;9.876;2022-08-21T04:01:14;101371.47;;;15.98;63.45
56400;BME280;42298;53.638;9.876;2022-08-21T04:03:40;101386.00;;;16.04;63.16
56400;BME280;42298;53.638;9.876;2022-08-21T04:06:05;101381.75;;;15.98;63.00
56400;BME280;42298;53.638;9.876;2022-08-21T04:08:31;101383.88;;;16.01;63.54
56400;BME280;42298;53.638;9.876;2022-08-21T04:10:57;101378.81;;;15.94;63.98
56400;BME280;42298;53.638;9.876;2022-08-21T04:13:24;101371.47;;;15.98;64.11
56400;BME280;42298;53.638;9.876;2022-08-21T04:15:49;101383.06;;;16.00;63.90
56400;BME280;42298;53.638;9.876;2022-08-21T04:18:15;101383.06;;;16.00;64.25
56400;BME280;42298;53.638;9.876;2022-08-21T04:20:42;101384.38;;;16.03;63.94
56400;BME280;42298;53.638;9.876;2022-08-21T04:23:08;101387.63;;;16.13;64.61
56400;BME280;42298;53.638;9.876;2022-08-21T04:25:34;101390.19;;;16.18;64.33
56400;BME280;42298;53.638;9.876;2022-08-21T04:27:59;101378.59;;;16.25;64.47
56400;BME280;42298;53.638;9.876;2022-08-21T04:30:25;101380.66;;;16.36;64.89
56400;BME280;42298;53.638;9.876;2022-08-21T04:32:52;101394.03;;;16.51;64.63
56400;BME280;42298;53.638;9.876;2022-08-21T04:35:20;101394.66;;;16.65;63.87
56400;BME280;42298;53.638;9.876;2022-08-21T04:37:46;101384.47;;;16.69;64.10
56400;BME280;42298;53.638;9.876;2022-08-21T04:40:14;101399.63;;;16.80;64.62
56400;BME280;42298;53.638;9.876;2022-08-21T04:42:49;101396.97;;;16.92;64.60
56400;BME280;42298;53.638;9.876;2022-08-21T04:45:19;101400.00;;;16.99;63.77
56400;BME280;42298;53.638;9.876;2022-08-21T04:47:47;101391.00;;;17.02;63.83
56400;BME280;42298;53.638;9.876;2022-08-21T04:50:13;101389.03;;;17.03;63.54
56400;BME280;42298;53.638;9.876;2022-08-21T04:52:38;101394.59;;;17.03;63.35
56400;BME280;42298;53.638;9.876;2022-08-21T04:55:04;101403.63;;;17.00;64.41
56400;BME280;42298;53.638;9.876;2022-08-21T04:57:29;101410.03;;;16.92;65.13
56400;BME280;42298;53.638;9.876;2022-08-21T04:59:55;101401.75;;;16.83;65.02
56400;BME280;42298;53.638;9.876;2022-08-21T05:02:21;101407.19;;;17.00;65.01
56400;BME280;42298;53.638;9.876;2022-08-21T05:04:51;101402.69;;;17.17;65.50
56400;BME280;42298;53.638;9.876;2022-08-21T05:07:23;101403.38;;;17.34;65.16
56400;BME280;42298;53.638;9.876;2022-08-21T05:09:51;101395.06;;;17.55;64.48
56400;BME280;42298;53.638;9.876;2022-08-21T05:12:17;101397.47;;;17.77;63.85
56400;BME280;42298;53.638;9.876;2022-08-21T05:14:43;101397.84;;;18.08;63.35
56400;BME280;42298;53.638;9.876;2022-08-21T05:17:09;101402.13;;;18.50;62.80
56400;BME280;42298;53.638;9.876;2022-08-21T05:19:35;101409.09;;;18.92;61.75
56400;BME280;42298;53.638;9.876;2022-08-21T05:22:00;101405.50;;;19.16;61.44
56400;BME280;42298;53.638;9.876;2022-08-21T05:24:26;101408.50;;;19.47;60.12
56400;BME280;42298;53.638;9.876;2022-08-21T05:26:51;101408.53;;;19.62;60.41
56400;BME280;42298;53.638;9.876;2022-08-21T05:29:17;101403.09;;;19.54;59.97
56400;BME280;42298;53.638;9.876;2022-08-21T05:31:43;101407.88;;;19.53;60.72
56400;BME280;42298;53.638;9.876;2022-08-21T05:34:08;101404.28;;;19.53;60.78
56400;BME280;42298;53.638;9.876;2022-08-21T05:36:34;101409.38;;;19.63;60.86
56400;BME280;42298;53.638;9.876;2022-08-21T05:38:59;101406.22;;;19.64;60.86
56400;BME280;42298;53.638;9.876;2022-08-21T05:41:25;101405.03;;;19.65;60.82
56400;BME280;42298;53.638;9.876;2022-08-21T05:43:50;101394.53;;;19.74;60.67
56400;BME280;42298;53.638;9.876;2022-08-21T05:46:16;101406.94;;;19.89;60.72
56400;BME280;42298;53.638;9.876;2022-08-21T05:48:41;101398.47;;;20.28;60.01
56400;BME280;42298;53.638;9.876;2022-08-21T05:51:09;101405.38;;;20.62;59.12
56400;BME280;42298;53.638;9.876;2022-08-21T05:53:36;101410.50;;;20.91;59.08
56400;BME280;42298;53.638;9.876;2022-08-21T05:56:02;101408.53;;;21.42;57.73
56400;BME280;42298;53.638;9.876;2022-08-21T05:58:30;101401.63;;;21.93;56.28
56400;BME280;42298;53.638;9.876;2022-08-21T06:00:56;101416.97;;;22.18;55.04
56400;BME280;42298;53.638;9.876;2022-08-21T06:03:27;101421.88;;;22.66;54.66
56400;BME280;42298;53.638;9.876;2022-08-21T06:05:53;101407.69;;;23.04;53.82
56400;BME280;42298;53.638;9.876;2022-08-21T06:08:20;101406.22;;;23.40;53.19
56400;BME280;42298;53.638;9.876;2022-08-21T06:10:47;101416.06;;;23.53;52.41
56400;BME280;42298;53.638;9.876;2022-08-21T06:13:13;101410.16;;;23.61;53.19
56400;BME280;42298;53.638;9.876;2022-08-21T06:15:39;101405.28;;;23.58;51.48
56400;BME280;42298;53.638;9.876;2022-08-21T06:18:04;101401.25;;;23.56;51.25
56400;BME280;42298;53.638;9.876;2022-08-21T06:20:30;101410.31;;;23.72;51.14
56400;BME280;42298;53.638;9.876;2022-08-21T06:22:56;101411.25;;;23.53;48.96
56400;BME280;42298;53.638;9.876;2022-08-21T06:25:21;101406.53;;;23.31;49.79
56400;BME280;42298;53.638;9.876;2022-08-21T06:27:47;101413.38;;;23.34;48.85
56400;BME280;42298;53.638;9.876;2022-08-21T06:30:13;101407.34;;;23.61;48.72
56400;BME280;42298;53.638;9.876;2022-08-21T06:32:38;101398.16;;;23.64;48.51
56400;BME280;42298;53.638;9.876;2022-08-21T06:35:05;101410.75;;;23.77;48.20
56400;BME280;42298;53.638;9.876;2022-08-21T06:37:31;101412.34;;;24.04;47.24
56400;BME280;42298;53.638;9.876;2022-08-21T06:39:56;101398.50;;;24.25;45.60
56400;BME280;42298;53.638;9.876;2022-08-21T06:42:22;101400.41;;;24.55;45.65
56400;BME280;42298;53.638;9.876;2022-08-21T06:44:47;101401.75;;;24.71;44.22
56400;BME280;42298;53.638;9.876;2022-08-21T06:47:13;101407.09;;;24.80;43.80
56400;BME280;42298;53.638;9.876;2022-08-21T06:49:39;101395.75;;;24.73;42.53
56400;BME280;42298;53.638;9.876;2022-08-21T06:52:08;101396.28;;;24.89;42.40
56400;BME280;42298;53.638;9.876;2022-08-21T06:54:35;101398.50;;;25.16;41.86
56400;BME280;42298;53.638;9.876;2022-08-21T06:57:01;101394.31;;;25.54;41.31
56400;BME280;42298;53.638;9.876;2022-08-21T06:59:26;101392.06;;;25.94;41.10
56400;BME280;42298;53.638;9.876;2022-08-21T07:01:51;101393.00;;;26.27;40.67
56400;BME280;42298;53.638;9.876;2022-08-21T07:04:17;101385.78;;;26.50;38.13
56400;BME280;42298;53.638;9.876;2022-08-21T07:06:42;101371.28;;;26.83;38.54
56400;BME280;42298;53.638;9.876;2022-08-21T07:09:07;101375.28;;;27.03;37.90
56400;BME280;42298;53.638;9.876;2022-08-21T07:11:34;101373.63;;;27.34;37.61
56400;BME280;42298;53.638;9.876;2022-08-21T07:14:00;101356.66;;;27.34;36.46
56400;BME280;42298;53.638;9.876;2022-08-21T07:16:25;101359.88;;;27.46;36.42
56400;BME280;42298;53.638;9.876;2022-08-21T07:18:51;101373.50;;;27.72;35.88
56400;BME280;42298;53.638;9.876;2022-08-21T07:21:20;101366.56;;;27.91;36.28
56400;BME280;42298;53.638;9.876;2022-08-21T07:23:49;101372.13;;;28.05;36.06
56400;BME280;42298;53.638;9.876;2022-08-21T07:26:17;101380.56;;;28.23;36.04
56400;BME280;42298;53.638;9.876;2022-08-21T07:28:44;101367.56;;;28.25;35.95
56400;BME280;42298;53.638;9.876;2022-08-21T07:31:10;101372.78;;;28.34;35.73
56400;BME280;42298;53.638;9.876;2022-08-21T07:33:39;101374.78;;;28.37;36.44
56400;BME280;42298;53.638;9.876;2022-08-21T07:36:05;101354.09;;;28.40;35.65
56400;BME280;42298;53.638;9.876;2022-08-21T07:38:30;101359.91;;;28.22;35.91
56400;BME280;42298;53.638;9.876;2022-08-21T07:40:57;101357.06;;;28.26;36.36
56400;BME280;42298;53.638;9.876;2022-08-21T07:43:24;101361.97;;;28.15;36.14
56400;BME280;42298;53.638;9.876;2022-08-21T07:45:50;101341.81;;;28.06;36.71
56400;BME280;42298;53.638;9.876;2022-08-21T07:48:15;101363.91;;;28.32;36.61
56400;BME280;42298;53.638;9.876;2022-08-21T07:50:42;101354.16;;;28.33;36.52
56400;BME280;42298;53.638;9.876;2022-08-21T07:53:07;101344.09;;;28.79;36.44
56400;BME280;42298;53.638;9.876;2022-08-21T07:55:33;101364.50;;;29.08;35.23
56400;BME280;42298;53.638;9.876;2022-08-21T07:57:58;101359.41;;;29.29;35.77
56400;BME280;42298;53.638;9.876;2022-08-21T08:00:25;101364.91;;;29.47;35.45
56400;BME280;42298;53.638;9.876;2022-08-21T08:02:52;101364.69;;;29.61;35.51
56400;BME280;42298;53.638;9.876;2022-08-21T08:05:20;101360.59;;;29.69;35.09
56400;BME280;42298;53.638;9.876;2022-08-21T08:07:46;101356.75;;;29.83;34.90
56400;BME280;42298;53.638;9.876;2022-08-21T08:10:15;101369.00;;;30.06;35.50
56400;BME280;42298;53.638;9.876;2022-08-21T08:12:42;101364.13;;;30.37;34.42
56400;BME280;42298;53.638;9.876;2022-08-21T08:15:11;101371.41;;;30.38;34.19
56400;BME280;42298;53.638;9.876;2022-08-21T08:17:37;101365.97;;;30.47;34.16
56400;BME280;42298;53.638;9.876;2022-08-21T08:20:05;101363.09;;;30.73;34.34
56400;BME280;42298;53.638;9.876;2022-08-21T08:22:30;101364.06;;;30.90;33.78
56400;BME280;42298;53.638;9.876;2022-08-21T08:24:55;101368.34;;;31.21;33.76
56400;BME280;42298;53.638;9.876;2022-08-21T08:27:22;101355.03;;;31.38;33.00
56400;BME280;42298;53.638;9.876;2022-08-21T08:29:50;101364.78;;;31.60;33.43
56400;BME280;42298;53.638;9.876;2022-08-21T08:32:15;101363.69;;;31.73;33.18
56400;BME280;42298;53.638;9.876;2022-08-21T08:34:40;101363.25;;;31.55;32.99
56400;BME280;42298;53.638;9.876;2022-08-21T08:37:07;101355.13;;;31.54;33.11
56400;BME280;42298;53.638;9.876;2022-08-21T08:39:33;101363.66;;;31.93;33.03
56400;BME280;42298;53.638;9.876;2022-08-21T08:42:22;101359.28;;;32.24;32.24
56400;BME280;42298;53.638;9.876;2022-08-21T08:45:17;101360.41;;;32.46;31.69
56400;BME280;42298;53.638;9.876;2022-08-21T08:47:49;101362.22;;;32.72;31.83
56400;BME280;42298;53.638;9.876;2022-08-21T08:50:24;101358.06;;;33.05;31.20
56400;BME280;42298;53.638;9.876;2022-08-21T08:52:59;101359.41;;;33.00;31.41
56400;BME280;42298;53.638;9.876;2022-08-21T08:55:39;101356.84;;;32.90;31.17
56400;BME280;42298;53.638;9.876;2022-08-21T08:58:06;101358.47;;;32.91;31.59
56400;BME280;42298;53.638;9.876;2022-08-21T09:00:31;101356.66;;;33.13;31.29
56400;BME280;42298;53.638;9.876;2022-08-21T09:02:59;101351.19;;;33.19;31.10
56400;BME280;42298;53.638;9.876;2022-08-21T09:05:46;101354.97;;;32.99;30.63
56400;BME280;42298;53.638;9.876;2022-08-21T09:08:30;101352.47;;;32.85;30.80
56400;BME280;42298;53.638;9.876;2022-08-21T09:11:20;101337.84;;;32.99;31.78
56400;BME280;42298;53.638;9.876;2022-08-21T09:14:00;101344.28;;;33.32;31.08
56400;BME280;42298;53.638;9.876;2022-08-21T09:16:45;101350.44;;;33.47;30.97
56400;BME280;42298;53.638;9.876;2022-08-21T09:19:28;101333.88;;;33.54;30.75
56400;BME280;42298;53.638;9.876;2022-08-21T09:22:08;101345.97;;;33.30;30.38
56400;BME280;42298;53.638;9.876;2022-08-21T09:24:57;101340.47;;;32.94;30.72
56400;BME280;42298;53.638;9.876;2022-08-21T09:27:25;101343.47;;;32.87;31.25
56400;BME280;42298;53.638;9.876;2022-08-21T09:29:53;101339.38;;;32.88;30.89
56400;BME280;42298;53.638;9.876;2022-08-21T09:32:28;101330.19;;;32.48;32.21
56400;BME280;42298;53.638;9.876;2022-08-21T09:35:07;101323.81;;;32.09;33.13
56400;BME280;42298;53.638;9.876;2022-08-21T09:37:44;101331.75;;;32.33;32.69
56400;BME280;42298;53.638;9.876;2022-08-21T09:43:21;101335.94;;;32.13;31.12
56400;BME280;42298;53.638;9.876;2022-08-21T09:45:49;101329.63;;;31.86;32.64
56400;BME280;42298;53.638;9.876;2022-08-21T09:48:25;101330.50;;;31.63;32.93
56400;BME280;42298;53.638;9.876;2022-08-21T09:50:52;101331.34;;;31.21;33.34
56400;BME280;42298;53.638;9.876;2022-08-21T09:53:25;101328.31;;;31.31;32.72
56400;BME280;42298;53.638;9.876;2022-08-21T09:56:26;101331.91;;;31.55;32.35
56400;BME280;42298;53.638;9.876;2022-08-21T09:59:36;101318.63;;;31.49;32.94
56400;BME280;42298;53.638;9.876;2022-08-21T10:02:28;101330.34;;;31.90;32.55
56400;BME280;42298;53.638;9.876;2022-08-21T10:05:19;101326.50;;;32.32;31.48
56400;BME280;42298;53.638;9.876;2022-08-21T10:07:45;101329.84;;;32.46;32.33
56400;BME280;42298;53.638;9.876;2022-08-21T10:10:36;101332.50;;;32.69;31.67
56400;BME280;42298;53.638;9.876;2022-08-21T10:13:13;101320.22;;;32.56;31.23
56400;BME280;42298;53.638;9.876;2022-08-21T10:15:56;101326.81;;;32.02;32.19
56400;BME280;42298;53.638;9.876;2022-08-21T10:24:46;101318.13;;;32.09;33.05
56400;BME280;42298;53.638;9.876;2022-08-21T10:27:21;101316.69;;;32.17;31.77
56400;BME280;42298;53.638;9.876;2022-08-21T10:29:55;101324.66;;;32.41;32.01
56400;BME280;42298;53.638;9.876;2022-08-21T10:38:00;101320.78;;;32.00;31.50
56400;BME280;42298;53.638;9.876;2022-08-21T10:40:52;101330.03;;;32.20;29.55
56400;BME280;42298;53.638;9.876;2022-08-21T10:43:22;101325.78;;;32.28;29.18
56400;BME280;42298;53.638;9.876;2022-08-21T10:48:50;101317.16;;;32.31;29.77
56400;BME280;42298;53.638;9.876;2022-08-21T10:51:27;101316.81;;;32.45;29.84
56400;BME280;42298;53.638;9.876;2022-08-21T10:54:10;101322.06;;;32.31;29.22
56400;BME280;42298;53.638;9.876;2022-08-21T10:56:40;101324.16;;;31.56;29.86
56400;BME280;42298;53.638;9.876;2022-08-21T10:59:29;101329.31;;;31.80;30.97
56400;BME280;42298;53.638;9.876;2022-08-21T11:02:02;101339.44;;;31.85;30.36
56400;BME280;42298;53.638;9.876;2022-08-21T11:04:34;101335.53;;;31.56;31.00
56400;BME280;42298;53.638;9.876;2022-08-21T11:07:13;101318.66;;;31.25;30.42
56400;BME280;42298;53.638;9.876;2022-08-21T11:09:43;101326.06;;;31.43;31.70
56400;BME280;42298;53.638;9.876;2022-08-21T11:12:43;101327.53;;;31.51;30.99
56400;BME280;42298;53.638;9.876;2022-08-21T11:15:24;101329.56;;;31.30;31.12
56400;BME280;42298;53.638;9.876;2022-08-21T11:18:01;101325.84;;;31.10;31.09
56400;BME280;42298;53.638;9.876;2022-08-21T11:20:38;101330.34;;;30.88;31.38
56400;BME280;42298;53.638;9.876;2022-08-21T11:23:14;101307.81;;;30.97;31.43
56400;BME280;42298;53.638;9.876;2022-08-21T11:25:53;101321.47;;;31.29;31.19
56400;BME280;42298;53.638;9.876;2022-08-21T11:28:29;101327.22;;;31.45;31.22
56400;BME280;42298;53.638;9.876;2022-08-21T11:34:05;101336.06;;;31.70;30.46
56400;BME280;42298;53.638;9.876;2022-08-21T11:39:41;101324.25;;;31.52;30.75
56400;BME280;42298;53.638;9.876;2022-08-21T11:42:24;101332.25;;;31.57;31.45
56400;BME280;42298;53.638;9.876;2022-08-21T11:48:07;101323.94;;;31.66;29.85
56400;BME280;42298;53.638;9.876;2022-08-21T11:50:37;101318.91;;;31.34;29.74
56400;BME280;42298;53.638;9.876;2022-08-21T11:53:19;101314.63;;;31.23;30.63
56400;BME280;42298;53.638;9.876;2022-08-21T11:55:54;101313.06;;;31.42;30.77
56400;BME280;42298;53.638;9.876;2022-08-21T11:58:44;101319.31;;;31.72;29.79
56400;BME280;42298;53.638;9.876;2022-08-21T12:01:22;101321.69;;;31.58;30.92
56400;BME280;42298;53.638;9.876;2022-08-21T12:04:16;101324.97;;;31.37;31.94
56400;BME280;42298;53.638;9.876;2022-08-21T12:06:41;101329.94;;;31.09;31.58
56400;BME280;42298;53.638;9.876;2022-08-21T12:14:45;101325.00;;;30.44;32.00
56400;BME280;42298;53.638;9.876;2022-08-21T12:17:23;101320.78;;;30.29;31.81
56400;BME280;42298;53.638;9.876;2022-08-21T12:20:00;101317.75;;;30.13;32.04
56400;BME280;42298;53.638;9.876;2022-08-21T12:22:39;101321.66;;;29.96;32.22
56400;BME280;42298;53.638;9.876;2022-08-21T12:25:11;101318.91;;;29.89;33.14
56400;BME280;42298;53.638;9.876;2022-08-21T12:28:02;101320.47;;;29.94;33.07
56400;BME280;42298;53.638;9.876;2022-08-21T12:32:57;101311.53;;;29.95;31.41
56400;BME280;42298;53.638;9.876;2022-08-21T12:35:42;101317.34;;;29.85;32.27
56400;BME280;42298;53.638;9.876;2022-08-21T12:38:26;101323.22;;;29.74;32.65
56400;BME280;42298;53.638;9.876;2022-08-21T12:40:59;101311.88;;;29.71;32.69
56400;BME280;42298;53.638;9.876;2022-08-21T12:43:41;101314.34;;;29.69;33.09
56400;BME280;42298;53.638;9.876;2022-08-21T12:46:17;101320.09;;;29.65;32.41
56400;BME280;42298;53.638;9.876;2022-08-21T12:49:22;101316.06;;;29.59;32.63
56400;BME280;42298;53.638;9.876;2022-08-21T12:54:30;101319.84;;;29.49;32.93
56400;BME280;42298;53.638;9.876;2022-08-21T12:57:02;101317.78;;;29.53;32.94
56400;BME280;42298;53.638;9.876;2022-08-21T12:59:29;101303.06;;;29.61;32.38
56400;BME280;42298;53.638;9.876;2022-08-21T13:01:55;101308.63;;;29.72;32.07
56400;BME280;42298;53.638;9.876;2022-08-21T13:04:34;101311.94;;;29.67;32.73
56400;BME280;42298;53.638;9.876;2022-08-21T13:07:01;101307.09;;;29.64;32.08
56400;BME280;42298;53.638;9.876;2022-08-21T13:09:30;101301.25;;;29.78;32.36
56400;BME280;42298;53.638;9.876;2022-08-21T13:11:57;101302.28;;;29.88;31.55
56400;BME280;42298;53.638;9.876;2022-08-21T13:16:58;101303.78;;;29.99;31.47
56400;BME280;42298;53.638;9.876;2022-08-21T13:19:25;101299.34;;;30.25;30.53
56400;BME280;42298;53.638;9.876;2022-08-21T13:21:52;101316.31;;;30.55;30.89
56400;BME280;42298;53.638;9.876;2022-08-21T13:24:19;101311.47;;;30.52;30.29
56400;BME280;42298;53.638;9.876;2022-08-21T13:26:46;101312.19;;;30.33;30.03
56400;BME280;42298;53.638;9.876;2022-08-21T13:29:15;101305.88;;;30.22;31.04
56400;BME280;42298;53.638;9.876;2022-08-21T13:31:48;101307.75;;;30.32;31.15
56400;BME280;42298;53.638;9.876;2022-08-21T13:34:14;101289.53;;;30.29;31.21
56400;BME280;42298;53.638;9.876;2022-08-21T13:36:41;101294.03;;;30.50;30.42
56400;BME280;42298;53.638;9.876;2022-08-21T13:39:09;101296.69;;;30.60;30.08
56400;BME280;42298;53.638;9.876;2022-08-21T13:41:38;101290.38;;;30.26;30.45
56400;BME280;42298;53.638;9.876;2022-08-21T13:44:13;101291.00;;;30.11;30.74